sensor_id;sensor_type;location;lat;lon;timestamp;pressure;altitude;pressure_sealevel;temperature;humidity
51986;BME280;38002;53.296;6.600;2022-10-22T00:03:29;101062.19;;;12.85;93.29
51986;BME280;38002;53.296;6.600;2022-10-22T00:08:29;101063.38;;;12.83;93.18
51986;BME280;38002;53.296;6.600;2022-10-22T00:13:30;101062.72;;;12.81;93.38
51986;BME280;38002;53.296;6.600;2022-10-22T00:18:30;101066.13;;;12.74;93.16
51986;BME280;38002;53.296;6.600;2022-10-22T00:23:31;101077.53;;;12.70;93.16
51986;BME280;38002;53.296;6.600;2022-10-22T00:28:31;101077.19;;;12.65;93.39
51986;BME280;38002;53.296;6.600;2022-10-22T00:33:32;101083.00;;;12.62;93.30
51986;BME280;38002;53.296;6.600;2022-10-22T00:38:33;101088.97;;;12.57;93.50
51986;BME280;38002;53.296;6.600;2022-10-22T00:43:52;101088.47;;;12.54;93.56
51986;BME280;38002;53.296;6.600;2022-10-22T00:48:55;101091.34;;;12.52;93.88
51986;BME280;38002;53.296;6.600;2022-10-22T00:54:02;101096.81;;;12.52;93.34
51986;BME280;38002;53.296;6.600;2022-10-22T00:59:03;101099.88;;;12.49;93.46
51986;BME280;38002;53.296;6.600;2022-10-22T01:04:04;101093.56;;;12.49;93.71
51986;BME280;38002;53.296;6.600;2022-10-22T01:09:38;101101.06;;;12.47;93.81
51986;BME280;38002;53.296;6.600;2022-10-22T01:30:29;101105.84;;;12.53;94.02
51986;BME280;38002;53.296;6.600;2022-10-22T01:35:36;101110.28;;;12.54;94.13
51986;BME280;38002;53.296;6.600;2022-10-22T01:40:38;101112.84;;;12.55;93.77
51986;BME280;38002;53.296;6.600;2022-10-22T01:45:46;101108.75;;;12.59;93.78
51986;BME280;38002;53.296;6.600;2022-10-22T01:56:29;101101.44;;;12.68;94.37
51986;BME280;38002;53.296;6.600;2022-10-22T02:06:57;101103.13;;;12.69;94.09
51986;BME280;38002;53.296;6.600;2022-10-22T02:12:01;101104.31;;;12.66;93.73
51986;BME280;38002;53.296;6.600;2022-10-22T02:17:06;101107.91;;;12.67;93.59
51986;BME280;38002;53.296;6.600;2022-10-22T02:22:08;101096.47;;;12.63;93.75
51986;BME280;38002;53.296;6.600;2022-10-22T02:27:59;101095.63;;;12.63;93.69
51986;BME280;38002;53.296;6.600;2022-10-22T02:32:58;101102.25;;;12.60;93.76
51986;BME280;38002;53.296;6.600;2022-10-22T02:38:02;101093.91;;;12.62;94.31
51986;BME280;38002;53.296;6.600;2022-10-22T02:43:04;101094.94;;;12.61;94.17
51986;BME280;38002;53.296;6.600;2022-10-22T02:48:05;101092.91;;;12.63;94.19
51986;BME280;38002;53.296;6.600;2022-10-22T02:53:06;101082.84;;;12.63;94.54
51986;BME280;38002;53.296;6.600;2022-10-22T02:58:06;101078.41;;;12.62;93.79
51986;BME280;38002;53.296;6.600;2022-10-22T03:03:06;101095.63;;;12.63;94.48
51986;BME280;38002;53.296;6.600;2022-10-22T03:08:07;101096.13;;;12.58;94.11
51986;BME280;38002;53.296;6.600;2022-10-22T03:13:07;101100.38;;;12.53;94.39
51986;BME280;38002;53.296;6.600;2022-10-22T03:18:08;101101.09;;;12.55;93.95
51986;BME280;38002;53.296;6.600;2022-10-22T03:23:10;101097.31;;;12.56;94.26
51986;BME280;38002;53.296;6.600;2022-10-22T03:28:12;101100.03;;;12.56;93.73
51986;BME280;38002;53.296;6.600;2022-10-22T03:33:14;101097.66;;;12.53;94.21
51986;BME280;38002;53.296;6.600;2022-10-22T03:38:15;101100.22;;;12.46;94.14
51986;BME280;38002;53.296;6.600;2022-10-22T03:43:15;101102.59;;;12.41;94.25
51986;BME280;38002;53.296;6.600;2022-10-22T03:48:16;101107.00;;;12.34;93.93
51986;BME280;38002;53.296;6.600;2022-10-22T03:53:16;101104.25;;;12.26;93.75
51986;BME280;38002;53.296;6.600;2022-10-22T03:58:17;101110.38;;;12.20;94.01
51986;BME280;38002;53.296;6.600;2022-10-22T04:03:17;101117.50;;;12.13;93.83
51986;BME280;38002;53.296;6.600;2022-10-22T04:08:18;101110.00;;;12.07;94.00
51986;BME280;38002;53.296;6.600;2022-10-22T04:13:18;101118.84;;;12.01;94.06
51986;BME280;38002;53.296;6.600;2022-10-22T04:18:19;101126.66;;;11.96;93.75
51986;BME280;38002;53.296;6.600;2022-10-22T04:23:20;101134.31;;;11.92;93.99
51986;BME280;38002;53.296;6.600;2022-10-22T04:28:21;101130.19;;;11.88;94.00
51986;BME280;38002;53.296;6.600;2022-10-22T04:33:22;101130.69;;;11.83;94.32
51986;BME280;38002;53.296;6.600;2022-10-22T04:38:22;101123.19;;;11.77;93.97
51986;BME280;38002;53.296;6.600;2022-10-22T04:43:22;101127.41;;;11.72;94.33
51986;BME280;38002;53.296;6.600;2022-10-22T04:48:23;101123.69;;;11.73;94.29
51986;BME280;38002;53.296;6.600;2022-10-22T04:53:23;101129.47;;;11.78;94.25
51986;BME280;38002;53.296;6.600;2022-10-22T04:58:24;101133.59;;;11.82;94.50
51986;BME280;38002;53.296;6.600;2022-10-22T05:03:24;101142.28;;;11.86;94.74
51986;BME280;38002;53.296;6.600;2022-10-22T05:08:25;101138.59;;;11.95;94.49
51986;BME280;38002;53.296;6.600;2022-10-22T05:13:25;101140.63;;;12.01;94.89
51986;BME280;38002;53.296;6.600;2022-10-22T05:18:26;101138.97;;;12.08;95.80
51986;BME280;38002;53.296;6.600;2022-10-22T05:23:27;101149.22;;;12.14;95.04
51986;BME280;38002;53.296;6.600;2022-10-22T05:28:27;101147.84;;;12.18;95.13
51986;BME280;38002;53.296;6.600;2022-10-22T05:33:29;101137.81;;;12.18;94.92
51986;BME280;38002;53.296;6.600;2022-10-22T05:38:31;101135.09;;;12.18;94.88
51986;BME280;38002;53.296;6.600;2022-10-22T05:43:32;101138.81;;;12.17;94.92
51986;BME280;38002;53.296;6.600;2022-10-22T05:48:33;101144.28;;;12.17;94.42
51986;BME280;38002;53.296;6.600;2022-10-22T05:53:35;101141.72;;;12.16;94.43
51986;BME280;38002;53.296;6.600;2022-10-22T05:58:37;101149.22;;;12.14;94.30
51986;BME280;38002;53.296;6.600;2022-10-22T06:03:37;101150.91;;;12.15;94.54
51986;BME280;38002;53.296;6.600;2022-10-22T06:08:38;101152.78;;;12.14;94.92
51986;BME280;38002;53.296;6.600;2022-10-22T06:13:38;101156.22;;;12.16;94.63
51986;BME280;38002;53.296;6.600;2022-10-22T06:18:39;101157.59;;;12.20;94.99
51986;BME280;38002;53.296;6.600;2022-10-22T06:23:40;101149.94;;;12.24;94.95
51986;BME280;38002;53.296;6.600;2022-10-22T06:28:41;101167.81;;;12.26;95.08
51986;BME280;38002;53.296;6.600;2022-10-22T06:33:41;101169.38;;;12.29;94.84
51986;BME280;38002;53.296;6.600;2022-10-22T06:38:42;101166.84;;;12.36;95.01
51986;BME280;38002;53.296;6.600;2022-10-22T06:43:44;101173.00;;;12.38;94.54
51986;BME280;38002;53.296;6.600;2022-10-22T06:48:54;101176.22;;;12.41;95.26
51986;BME280;38002;53.296;6.600;2022-10-22T06:53:56;101188.50;;;12.45;94.75
51986;BME280;38002;53.296;6.600;2022-10-22T06:58:57;101193.28;;;12.51;95.20
51986;BME280;38002;53.296;6.600;2022-10-22T07:03:57;101197.59;;;12.62;94.92
51986;BME280;38002;53.296;6.600;2022-10-22T07:08:58;101186.34;;;12.73;94.80
51986;BME280;38002;53.296;6.600;2022-10-22T07:13:59;101189.63;;;12.85;94.58
51986;BME280;38002;53.296;6.600;2022-10-22T07:19:00;101204.78;;;12.95;94.84
51986;BME280;38002;53.296;6.600;2022-10-22T07:24:01;101211.97;;;13.04;95.08
51986;BME280;38002;53.296;6.600;2022-10-22T07:29:03;101223.78;;;13.13;94.48
51986;BME280;38002;53.296;6.600;2022-10-22T07:34:04;101209.97;;;13.14;94.72
51986;BME280;38002;53.296;6.600;2022-10-22T07:39:04;101231.31;;;13.27;94.36
51986;BME280;38002;53.296;6.600;2022-10-22T07:44:05;101226.50;;;13.29;94.50
51986;BME280;38002;53.296;6.600;2022-10-22T07:49:05;101240.50;;;13.34;93.69
51986;BME280;38002;53.296;6.600;2022-10-22T07:54:05;101242.94;;;13.37;93.67
51986;BME280;38002;53.296;6.600;2022-10-22T07:59:06;101238.81;;;13.41;94.06
51986;BME280;38002;53.296;6.600;2022-10-22T08:04:07;101244.97;;;13.43;93.47
51986;BME280;38002;53.296;6.600;2022-10-22T08:09:09;101247.19;;;13.48;93.38
51986;BME280;38002;53.296;6.600;2022-10-22T08:14:09;101258.81;;;13.50;93.14
51986;BME280;38002;53.296;6.600;2022-10-22T08:19:09;101265.78;;;13.52;94.08
51986;BME280;38002;53.296;6.600;2022-10-22T08:24:10;101268.16;;;13.55;93.37
51986;BME280;38002;53.296;6.600;2022-10-22T08:29:12;101266.81;;;13.59;92.98
51986;BME280;38002;53.296;6.600;2022-10-22T08:34:12;101267.13;;;13.64;93.11
51986;BME280;38002;53.296;6.600;2022-10-22T08:39:13;101277.41;;;13.71;93.20
51986;BME280;38002;53.296;6.600;2022-10-22T08:49:34;101278.03;;;13.97;93.53
51986;BME280;38002;53.296;6.600;2022-10-22T09:00:09;101290.44;;;14.32;92.91
51986;BME280;38002;53.296;6.600;2022-10-22T09:10:34;101287.78;;;14.54;91.98
51986;BME280;38002;53.296;6.600;2022-10-22T09:15:37;101284.69;;;14.66;91.98
51986;BME280;38002;53.296;6.600;2022-10-22T09:20:49;101282.75;;;14.74;91.88
51986;BME280;38002;53.296;6.600;2022-10-22T09:25:55;101289.53;;;14.86;91.72
51986;BME280;38002;53.296;6.600;2022-10-22T09:30:56;101284.97;;;15.02;91.70
51986;BME280;38002;53.296;6.600;2022-10-22T09:35:59;101304.25;;;15.16;91.61
51986;BME280;38002;53.296;6.600;2022-10-22T09:41:02;101307.94;;;15.31;91.04
51986;BME280;38002;53.296;6.600;2022-10-22T09:46:06;101309.75;;;15.39;91.05
51986;BME280;38002;53.296;6.600;2022-10-22T09:51:21;101316.75;;;15.41;90.15
51986;BME280;38002;53.296;6.600;2022-10-22T09:56:34;101317.59;;;15.42;89.47
51986;BME280;38002;53.296;6.600;2022-10-22T10:01:35;101318.94;;;15.46;90.23
51986;BME280;38002;53.296;6.600;2022-10-22T10:06:42;101323.19;;;15.57;90.24
51986;BME280;38002;53.296;6.600;2022-10-22T10:11:48;101324.63;;;15.67;89.73
51986;BME280;38002;53.296;6.600;2022-10-22T10:17:11;101329.69;;;15.78;89.78
51986;BME280;38002;53.296;6.600;2022-10-22T10:22:34;101343.88;;;15.82;88.95
51986;BME280;38002;53.296;6.600;2022-10-22T10:27:46;101361.38;;;15.81;88.79
51986;BME280;38002;53.296;6.600;2022-10-22T10:54:07;101385.19;;;15.80;88.53
51986;BME280;38002;53.296;6.600;2022-10-22T10:59:46;101383.00;;;15.76;88.23
51986;BME280;38002;53.296;6.600;2022-10-22T11:09:59;101388.13;;;15.79;89.06
51986;BME280;38002;53.296;6.600;2022-10-22T11:15:07;101393.63;;;15.79;89.29
51986;BME280;38002;53.296;6.600;2022-10-22T11:20:21;101397.00;;;15.81;89.02
51986;BME280;38002;53.296;6.600;2022-10-22T11:25:29;101397.97;;;15.88;88.93
51986;BME280;38002;53.296;6.600;2022-10-22T11:30:34;101400.78;;;16.03;88.94
51986;BME280;38002;53.296;6.600;2022-10-22T11:35:41;101404.63;;;16.16;88.54
51986;BME280;38002;53.296;6.600;2022-10-22T11:40:47;101405.59;;;16.53;88.16
51986;BME280;38002;53.296;6.600;2022-10-22T11:45:56;101405.94;;;16.87;87.10
51986;BME280;38002;53.296;6.600;2022-10-22T11:51:00;101419.59;;;16.81;87.59
51986;BME280;38002;53.296;6.600;2022-10-22T12:11:40;101410.03;;;16.24;87.49
51986;BME280;38002;53.296;6.600;2022-10-22T12:16:50;101426.81;;;16.07;88.30
51986;BME280;38002;53.296;6.600;2022-10-22T12:21:54;101423.75;;;16.02;88.88
51986;BME280;38002;53.296;6.600;2022-10-22T12:26:55;101423.44;;;15.97;88.99
51986;BME280;38002;53.296;6.600;2022-10-22T12:31:55;101419.38;;;15.93;89.52
51986;BME280;38002;53.296;6.600;2022-10-22T12:36:56;101416.16;;;15.89;89.09
51986;BME280;38002;53.296;6.600;2022-10-22T12:41:57;101422.88;;;15.86;89.55
51986;BME280;38002;53.296;6.600;2022-10-22T12:46:57;101427.88;;;15.83;89.16
51986;BME280;38002;53.296;6.600;2022-10-22T12:52:02;101424.44;;;15.81;89.71
51986;BME280;38002;53.296;6.600;2022-10-22T12:57:04;101428.41;;;15.78;89.64
51986;BME280;38002;53.296;6.600;2022-10-22T13:02:34;101428.22;;;15.80;90.14
51986;BME280;38002;53.296;6.600;2022-10-22T13:07:39;101425.09;;;16.06;89.83
51986;BME280;38002;53.296;6.600;2022-10-22T13:12:43;101435.09;;;16.21;89.40
51986;BME280;38002;53.296;6.600;2022-10-22T13:17:48;101434.66;;;16.32;89.19
51986;BME280;38002;53.296;6.600;2022-10-22T13:22:54;101441.22;;;16.46;89.24
51986;BME280;38002;53.296;6.600;2022-10-22T13:28:00;101440.66;;;16.51;89.01
51986;BME280;38002;53.296;6.600;2022-10-22T13:33:24;101443.53;;;16.57;87.88
51986;BME280;38002;53.296;6.600;2022-10-22T13:38:27;101447.81;;;16.60;88.25
51986;BME280;38002;53.296;6.600;2022-10-22T13:43:27;101443.44;;;16.65;88.10
51986;BME280;38002;53.296;6.600;2022-10-22T13:48:28;101447.72;;;16.68;87.63
51986;BME280;38002;53.296;6.600;2022-10-22T13:53:30;101438.72;;;16.74;87.84
51986;BME280;38002;53.296;6.600;2022-10-22T13:58:30;101448.09;;;16.79;87.72
51986;BME280;38002;53.296;6.600;2022-10-22T14:03:32;101456.91;;;16.75;87.64
51986;BME280;38002;53.296;6.600;2022-10-22T14:08:33;101455.56;;;16.71;87.36
51986;BME280;38002;53.296;6.600;2022-10-22T14:13:34;101454.38;;;16.73;87.12
51986;BME280;38002;53.296;6.600;2022-10-22T14:18:34;101452.66;;;16.72;86.96
51986;BME280;38002;53.296;6.600;2022-10-22T14:23:35;101466.94;;;16.68;86.87
51986;BME280;38002;53.296;6.600;2022-10-22T14:28:36;101479.13;;;16.65;86.12
51986;BME280;38002;53.296;6.600;2022-10-22T14:33:36;101465.13;;;16.60;86.36
51986;BME280;38002;53.296;6.600;2022-10-22T14:38:37;101462.91;;;16.56;86.37
51986;BME280;38002;53.296;6.600;2022-10-22T14:43:37;101472.56;;;16.52;86.42
51986;BME280;38002;53.296;6.600;2022-10-22T14:48:38;101485.31;;;16.45;86.83
51986;BME280;38002;53.296;6.600;2022-10-22T14:53:39;101497.69;;;16.41;86.74
51986;BME280;38002;53.296;6.600;2022-10-22T14:58:40;101494.38;;;16.30;86.90
51986;BME280;38002;53.296;6.600;2022-10-22T15:03:40;101491.50;;;16.24;86.63
51986;BME280;38002;53.296;6.600;2022-10-22T15:08:41;101499.63;;;16.17;86.46
51986;BME280;38002;53.296;6.600;2022-10-22T15:13:41;101505.81;;;16.11;86.62
51986;BME280;38002;53.296;6.600;2022-10-22T15:18:43;101519.44;;;16.05;87.02
51986;BME280;38002;53.296;6.600;2022-10-22T15:23:43;101524.28;;;15.95;87.16
51986;BME280;38002;53.296;6.600;2022-10-22T15:28:44;101535.00;;;15.81;87.11
51986;BME280;38002;53.296;6.600;2022-10-22T15:33:44;101536.44;;;15.69;87.06
51986;BME280;38002;53.296;6.600;2022-10-22T15:38:45;101525.34;;;15.55;87.22
51986;BME280;38002;53.296;6.600;2022-10-22T15:43:45;101544.72;;;15.45;87.37
51986;BME280;38002;53.296;6.600;2022-10-22T15:48:48;101549.19;;;15.38;87.43
51986;BME280;38002;53.296;6.600;2022-10-22T15:53:54;101553.50;;;15.32;86.97
51986;BME280;38002;53.296;6.600;2022-10-22T15:58:57;101557.28;;;15.23;87.08
51986;BME280;38002;53.296;6.600;2022-10-22T16:03:58;101566.59;;;15.14;87.15
51986;BME280;38002;53.296;6.600;2022-10-22T16:09:01;101567.78;;;15.04;87.20
51986;BME280;38002;53.296;6.600;2022-10-22T16:14:02;101570.91;;;14.92;87.31
51986;BME280;38002;53.296;6.600;2022-10-22T16:19:03;101582.03;;;14.83;87.05
51986;BME280;38002;53.296;6.600;2022-10-22T16:24:04;101587.81;;;14.72;87.33
51986;BME280;38002;53.296;6.600;2022-10-22T16:29:05;101590.22;;;14.59;86.87
51986;BME280;38002;53.296;6.600;2022-10-22T16:34:07;101596.19;;;14.46;87.25
51986;BME280;38002;53.296;6.600;2022-10-22T16:39:07;101604.19;;;14.31;87.18
51986;BME280;38002;53.296;6.600;2022-10-22T16:44:08;101607.25;;;14.20;87.37
51986;BME280;38002;53.296;6.600;2022-10-22T16:49:09;101615.78;;;14.09;87.60
51986;BME280;38002;53.296;6.600;2022-10-22T16:54:10;101610.56;;;13.90;87.21
51986;BME280;38002;53.296;6.600;2022-10-22T16:59:11;101607.44;;;13.77;86.99
51986;BME280;38002;53.296;6.600;2022-10-22T17:04:12;101620.22;;;13.68;87.94
51986;BME280;38002;53.296;6.600;2022-10-22T17:09:12;101626.34;;;13.62;87.39
51986;BME280;38002;53.296;6.600;2022-10-22T17:14:13;101624.25;;;13.56;87.71
51986;BME280;38002;53.296;6.600;2022-10-22T17:19:13;101633.28;;;13.48;87.52
51986;BME280;38002;53.296;6.600;2022-10-22T17:24:15;101635.97;;;13.40;87.86
51986;BME280;38002;53.296;6.600;2022-10-22T17:29:16;101647.69;;;13.33;88.39
51986;BME280;38002;53.296;6.600;2022-10-22T17:34:17;101650.19;;;13.26;87.79
51986;BME280;38002;53.296;6.600;2022-10-22T17:39:17;101651.16;;;13.17;88.24
51986;BME280;38002;53.296;6.600;2022-10-22T17:44:18;101659.16;;;13.10;87.75
51986;BME280;38002;53.296;6.600;2022-10-22T17:49:19;101664.50;;;13.02;88.46
51986;BME280;38002;53.296;6.600;2022-10-22T17:54:20;101664.13;;;12.97;88.01
51986;BME280;38002;53.296;6.600;2022-10-22T17:59:20;101665.59;;;12.92;88.65
51986;BME280;38002;53.296;6.600;2022-10-22T18:04:20;101675.28;;;12.86;88.32
51986;BME280;38002;53.296;6.600;2022-10-22T18:09:22;101683.72;;;12.75;87.58
51986;BME280;38002;53.296;6.600;2022-10-22T18:14:23;101682.84;;;12.74;88.11
51986;BME280;38002;53.296;6.600;2022-10-22T18:19:23;101681.78;;;12.67;88.21
51986;BME280;38002;53.296;6.600;2022-10-22T18:24:24;101682.69;;;12.58;88.26
51986;BME280;38002;53.296;6.600;2022-10-22T18:29:24;101683.84;;;12.56;88.55
51986;BME280;38002;53.296;6.600;2022-10-22T18:34:25;101687.34;;;12.48;88.41
51986;BME280;38002;53.296;6.600;2022-10-22T18:39:25;101690.84;;;12.41;88.72
51986;BME280;38002;53.296;6.600;2022-10-22T18:44:26;101688.59;;;12.36;88.84
51986;BME280;38002;53.296;6.600;2022-10-22T18:49:26;101691.91;;;12.30;88.86
51986;BME280;38002;53.296;6.600;2022-10-22T18:54:27;101698.88;;;12.24;88.78
51986;BME280;38002;53.296;6.600;2022-10-22T18:59:29;101707.63;;;12.18;89.25
51986;BME280;38002;53.296;6.600;2022-10-22T19:04:30;101708.22;;;12.12;88.75
51986;BME280;38002;53.296;6.600;2022-10-22T19:09:35;101709.72;;;12.07;89.17
51986;BME280;38002;53.296;6.600;2022-10-22T19:14:36;101708.44;;;12.01;89.11
51986;BME280;38002;53.296;6.600;2022-10-22T19:19:36;101709.91;;;11.96;89.23
51986;BME280;38002;53.296;6.600;2022-10-22T19:24:37;101709.50;;;11.91;89.30
51986;BME280;38002;53.296;6.600;2022-10-22T19:29:37;101715.25;;;11.88;89.50
51986;BME280;38002;53.296;6.600;2022-10-22T19:34:38;101710.09;;;11.85;89.63
51986;BME280;38002;53.296;6.600;2022-10-22T19:39:39;101711.09;;;11.83;89.30
51986;BME280;38002;53.296;6.600;2022-10-22T19:44:40;101715.13;;;11.79;89.56
51986;BME280;38002;53.296;6.600;2022-10-22T19:49:41;101713.56;;;11.77;89.59
51986;BME280;38002;53.296;6.600;2022-10-22T19:54:41;101728.34;;;11.74;89.56
51986;BME280;38002;53.296;6.600;2022-10-22T19:59:44;101731.66;;;11.68;89.75
51986;BME280;38002;53.296;6.600;2022-10-22T20:04:45;101731.91;;;11.65;89.96
51986;BME280;38002;53.296;6.600;2022-10-22T20:09:45;101731.22;;;11.63;89.96
51986;BME280;38002;53.296;6.600;2022-10-22T20:14:45;101738.53;;;11.63;89.98
51986;BME280;38002;53.296;6.600;2022-10-22T20:19:46;101735.94;;;11.61;89.87
51986;BME280;38002;53.296;6.600;2022-10-22T20:24:46;101744.13;;;11.61;89.69
51986;BME280;38002;53.296;6.600;2022-10-22T20:29:47;101736.56;;;11.55;89.98
51986;BME280;38002;53.296;6.600;2022-10-22T20:34:47;101731.53;;;11.51;90.07
51986;BME280;38002;53.296;6.600;2022-10-22T20:39:48;101738.13;;;11.48;90.01
51986;BME280;38002;53.296;6.600;2022-10-22T20:44:49;101738.56;;;11.44;90.30
51986;BME280;38002;53.296;6.600;2022-10-22T20:49:49;101750.50;;;11.43;90.30
51986;BME280;38002;53.296;6.600;2022-10-22T20:54:50;101744.91;;;11.34;89.98
51986;BME280;38002;53.296;6.600;2022-10-22T20:59:51;101752.78;;;11.28;90.16
51986;BME280;38002;53.296;6.600;2022-10-22T21:04:53;101744.91;;;11.25;90.25
51986;BME280;38002;53.296;6.600;2022-10-22T21:09:54;101742.94;;;11.17;90.11
51986;BME280;38002;53.296;6.600;2022-10-22T21:14:54;101743.34;;;11.13;90.16
51986;BME280;38002;53.296;6.600;2022-10-22T21:19:55;101735.75;;;11.07;90.24
51986;BME280;38002;53.296;6.600;2022-10-22T21:24:55;101743.34;;;11.03;90.38
51986;BME280;38002;53.296;6.600;2022-10-22T21:29:56;101743.91;;;10.97;90.31
51986;BME280;38002;53.296;6.600;2022-10-22T21:34:56;101745.34;;;10.91;90.33
51986;BME280;38002;53.296;6.600;2022-10-22T21:39:56;101744.75;;;10.88;90.34
51986;BME280;38002;53.296;6.600;2022-10-22T21:44:57;101740.63;;;10.84;90.33
51986;BME280;38002;53.296;6.600;2022-10-22T21:49:57;101728.16;;;10.81;90.61
51986;BME280;38002;53.296;6.600;2022-10-22T21:54:58;101735.88;;;10.76;90.65
51986;BME280;38002;53.296;6.600;2022-10-22T21:59:58;101740.03;;;10.71;90.44
51986;BME280;38002;53.296;6.600;2022-10-22T22:04:58;101738.59;;;10.67;90.52
51986;BME280;38002;53.296;6.600;2022-10-22T22:09:59;101733.13;;;10.57;90.51
51986;BME280;38002;53.296;6.600;2022-10-22T22:14:59;101735.84;;;10.57;90.30
51986;BME280;38002;53.296;6.600;2022-10-22T22:20:00;101746.16;;;10.54;90.39
51986;BME280;38002;53.296;6.600;2022-10-22T22:25:02;101739.44;;;10.48;90.25
51986;BME280;38002;53.296;6.600;2022-10-22T22:30:03;101751.44;;;10.45;90.70
51986;BME280;38002;53.296;6.600;2022-10-22T22:35:04;101741.84;;;10.41;90.26
51986;BME280;38002;53.296;6.600;2022-10-22T22:40:05;101749.44;;;10.38;90.32
51986;BME280;38002;53.296;6.600;2022-10-22T22:45:06;101746.25;;;10.33;90.76
51986;BME280;38002;53.296;6.600;2022-10-22T22:50:06;101747.41;;;10.30;90.35
51986;BME280;38002;53.296;6.600;2022-10-22T22:55:07;101755.81;;;10.27;90.31
51986;BME280;38002;53.296;6.600;2022-10-22T23:00:08;101755.97;;;10.26;90.75
51986;BME280;38002;53.296;6.600;2022-10-22T23:05:09;101753.25;;;10.26;91.08
51986;BME280;38002;53.296;6.600;2022-10-22T23:10:09;101742.63;;;10.23;90.92
51986;BME280;38002;53.296;6.600;2022-10-22T23:15:10;101748.22;;;10.21;90.97
51986;BME280;38002;53.296;6.600;2022-10-22T23:20:10;101761.09;;;10.19;90.79
51986;BME280;38002;53.296;6.600;2022-10-22T23:25:11;101755.94;;;10.16;90.79
51986;BME280;38002;53.296;6.600;2022-10-22T23:30:11;101749.03;;;10.12;90.68
51986;BME280;38002;53.296;6.600;2022-10-22T23:35:12;101742.72;;;10.12;91.27
51986;BME280;38002;53.296;6.600;2022-10-22T23:40:13;101733.72;;;10.11;91.00
51986;BME280;38002;53.296;6.600;2022-10-22T23:45:13;101728.84;;;10.15;90.87
51986;BME280;38002;53.296;6.600;2022-10-22T23:50:14;101719.63;;;10.17;90.99
51986;BME280;38002;53.296;6.600;2022-10-22T23:55:14;101732.78;;;10.22;91.58
